sensor_id;sensor_type;location;lat;lon;timestamp;P1;durP1;ratioP1;P2;durP2;ratioP2
70920;SDS011;58572;48.110;19.838;2022-12-05T00:00:26;22.02;;;10.93;;
70920;SDS011;58572;48.110;19.838;2022-12-05T00:02:53;20.85;;;11.00;;
70920;SDS011;58572;48.110;19.838;2022-12-05T00:05:20;19.25;;;10.93;;
70920;SDS011;58572;48.110;19.838;2022-12-05T00:10:16;18.52;;;9.45;;
70920;SDS011;58572;48.110;19.838;2022-12-05T00:12:43;19.90;;;11.18;;
70920;SDS011;58572;48.110;19.838;2022-12-05T00:15:11;22.98;;;11.75;;
70920;SDS011;58572;48.110;19.838;2022-12-05T00:17:38;20.17;;;11.05;;
70920;SDS011;58572;48.110;19.838;2022-12-05T00:20:06;20.60;;;10.93;;
70920;SDS011;58572;48.110;19.838;2022-12-05T00:22:35;17.98;;;9.40;;
70920;SDS011;58572;48.110;19.838;2022-12-05T00:25:03;18.60;;;10.45;;
70920;SDS011;58572;48.110;19.838;2022-12-05T00:27:33;21.33;;;10.90;;
70920;SDS011;58572;48.110;19.838;2022-12-05T00:30:00;17.33;;;9.73;;
70920;SDS011;58572;48.110;19.838;2022-12-05T00:32:28;18.15;;;9.77;;
70920;SDS011;58572;48.110;19.838;2022-12-05T00:34:56;21.92;;;11.07;;
70920;SDS011;58572;48.110;19.838;2022-12-05T00:37:23;23.70;;;11.98;;
70920;SDS011;58572;48.110;19.838;2022-12-05T00:39:50;23.23;;;11.48;;
70920;SDS011;58572;48.110;19.838;2022-12-05T00:42:17;23.88;;;11.48;;
70920;SDS011;58572;48.110;19.838;2022-12-05T00:44:46;28.55;;;15.32;;
70920;SDS011;58572;48.110;19.838;2022-12-05T00:47:14;23.25;;;12.07;;
70920;SDS011;58572;48.110;19.838;2022-12-05T00:49:42;21.45;;;11.43;;
70920;SDS011;58572;48.110;19.838;2022-12-05T00:52:09;34.28;;;17.60;;
70920;SDS011;58572;48.110;19.838;2022-12-05T00:54:37;20.85;;;10.70;;
70920;SDS011;58572;48.110;19.838;2022-12-05T00:57:04;22.92;;;11.02;;
70920;SDS011;58572;48.110;19.838;2022-12-05T00:59:31;19.70;;;11.48;;
70920;SDS011;58572;48.110;19.838;2022-12-05T01:02:00;19.85;;;11.13;;
70920;SDS011;58572;48.110;19.838;2022-12-05T01:04:27;20.02;;;11.15;;
70920;SDS011;58572;48.110;19.838;2022-12-05T01:06:55;20.55;;;11.27;;
70920;SDS011;58572;48.110;19.838;2022-12-05T01:09:23;21.27;;;11.93;;
70920;SDS011;58572;48.110;19.838;2022-12-05T01:11:51;19.48;;;10.32;;
70920;SDS011;58572;48.110;19.838;2022-12-05T01:14:19;18.30;;;9.45;;
70920;SDS011;58572;48.110;19.838;2022-12-05T01:16:47;24.85;;;14.02;;
70920;SDS011;58572;48.110;19.838;2022-12-05T01:19:17;21.33;;;12.05;;
70920;SDS011;58572;48.110;19.838;2022-12-05T01:21:46;17.55;;;10.38;;
70920;SDS011;58572;48.110;19.838;2022-12-05T01:24:14;19.38;;;10.73;;
70920;SDS011;58572;48.110;19.838;2022-12-05T01:26:42;19.95;;;10.85;;
70920;SDS011;58572;48.110;19.838;2022-12-05T01:31:38;16.60;;;8.55;;
70920;SDS011;58572;48.110;19.838;2022-12-05T01:34:07;22.70;;;11.40;;
70920;SDS011;58572;48.110;19.838;2022-12-05T01:36:38;22.52;;;11.13;;
70920;SDS011;58572;48.110;19.838;2022-12-05T01:39:05;18.08;;;10.13;;
70920;SDS011;58572;48.110;19.838;2022-12-05T01:41:34;20.05;;;10.65;;
70920;SDS011;58572;48.110;19.838;2022-12-05T01:44:03;19.45;;;11.00;;
70920;SDS011;58572;48.110;19.838;2022-12-05T01:46:33;19.30;;;10.65;;
70920;SDS011;58572;48.110;19.838;2022-12-05T01:49:02;23.83;;;11.32;;
70920;SDS011;58572;48.110;19.838;2022-12-05T01:51:32;19.95;;;10.65;;
70920;SDS011;58572;48.110;19.838;2022-12-05T01:54:01;21.98;;;11.40;;
70920;SDS011;58572;48.110;19.838;2022-12-05T01:56:30;22.58;;;11.63;;
70920;SDS011;58572;48.110;19.838;2022-12-05T01:58:58;21.20;;;11.30;;
70920;SDS011;58572;48.110;19.838;2022-12-05T02:03:53;23.27;;;11.73;;
70920;SDS011;58572;48.110;19.838;2022-12-05T02:06:23;21.75;;;11.90;;
70920;SDS011;58572;48.110;19.838;2022-12-05T02:08:52;24.25;;;12.43;;
70920;SDS011;58572;48.110;19.838;2022-12-05T02:11:21;25.50;;;13.05;;
70920;SDS011;58572;48.110;19.838;2022-12-05T02:14:00;23.35;;;11.48;;
70920;SDS011;58572;48.110;19.838;2022-12-05T02:16:44;25.23;;;12.45;;
70920;SDS011;58572;48.110;19.838;2022-12-05T02:19:29;22.55;;;11.90;;
70920;SDS011;58572;48.110;19.838;2022-12-05T02:22:22;21.63;;;10.57;;
70920;SDS011;58572;48.110;19.838;2022-12-05T02:25:23;21.15;;;11.15;;
70920;SDS011;58572;48.110;19.838;2022-12-05T02:28:13;19.90;;;10.50;;
70920;SDS011;58572;48.110;19.838;2022-12-05T02:31:03;24.50;;;13.13;;
70920;SDS011;58572;48.110;19.838;2022-12-05T02:33:36;19.60;;;11.27;;
70920;SDS011;58572;48.110;19.838;2022-12-05T02:36:10;23.95;;;11.55;;
70920;SDS011;58572;48.110;19.838;2022-12-05T02:38:44;20.63;;;11.52;;
70920;SDS011;58572;48.110;19.838;2022-12-05T02:41:19;22.00;;;11.77;;
70920;SDS011;58572;48.110;19.838;2022-12-05T02:43:50;21.40;;;10.98;;
70920;SDS011;58572;48.110;19.838;2022-12-05T02:46:25;26.25;;;13.50;;
70920;SDS011;58572;48.110;19.838;2022-12-05T02:48:55;22.27;;;11.30;;
70920;SDS011;58572;48.110;19.838;2022-12-05T02:51:26;24.25;;;11.60;;
70920;SDS011;58572;48.110;19.838;2022-12-05T02:53:57;20.30;;;9.82;;
70920;SDS011;58572;48.110;19.838;2022-12-05T02:56:28;20.48;;;10.80;;
70920;SDS011;58572;48.110;19.838;2022-12-05T02:58:58;18.88;;;10.75;;
70920;SDS011;58572;48.110;19.838;2022-12-05T03:01:29;20.00;;;10.50;;
70920;SDS011;58572;48.110;19.838;2022-12-05T03:03:58;20.27;;;10.50;;
70920;SDS011;58572;48.110;19.838;2022-12-05T03:06:28;27.08;;;12.82;;
70920;SDS011;58572;48.110;19.838;2022-12-05T03:08:59;25.92;;;11.50;;
70920;SDS011;58572;48.110;19.838;2022-12-05T03:11:30;46.83;;;17.52;;
70920;SDS011;58572;48.110;19.838;2022-12-05T03:14:03;29.75;;;13.75;;
70920;SDS011;58572;48.110;19.838;2022-12-05T03:16:40;26.40;;;12.50;;
70920;SDS011;58572;48.110;19.838;2022-12-05T03:19:13;23.27;;;11.23;;
70920;SDS011;58572;48.110;19.838;2022-12-05T03:21:45;27.23;;;11.63;;
70920;SDS011;58572;48.110;19.838;2022-12-05T03:24:16;21.80;;;11.15;;
70920;SDS011;58572;48.110;19.838;2022-12-05T03:26:45;22.77;;;11.65;;
70920;SDS011;58572;48.110;19.838;2022-12-05T03:29:22;25.95;;;11.90;;
70920;SDS011;58572;48.110;19.838;2022-12-05T03:32:04;23.60;;;11.63;;
70920;SDS011;58572;48.110;19.838;2022-12-05T03:34:41;27.70;;;12.57;;
70920;SDS011;58572;48.110;19.838;2022-12-05T03:37:18;25.73;;;12.45;;
70920;SDS011;58572;48.110;19.838;2022-12-05T03:39:48;26.15;;;12.85;;
70920;SDS011;58572;48.110;19.838;2022-12-05T03:42:27;27.40;;;12.18;;
70920;SDS011;58572;48.110;19.838;2022-12-05T03:44:59;24.90;;;11.27;;
70920;SDS011;58572;48.110;19.838;2022-12-05T03:47:32;29.60;;;13.93;;
70920;SDS011;58572;48.110;19.838;2022-12-05T03:50:09;28.38;;;13.23;;
70920;SDS011;58572;48.110;19.838;2022-12-05T03:52:41;26.90;;;12.48;;
70920;SDS011;58572;48.110;19.838;2022-12-05T03:55:12;29.65;;;14.20;;
70920;SDS011;58572;48.110;19.838;2022-12-05T03:57:42;26.60;;;13.98;;
70920;SDS011;58572;48.110;19.838;2022-12-05T04:00:13;44.00;;;16.95;;
70920;SDS011;58572;48.110;19.838;2022-12-05T04:02:46;35.88;;;16.23;;
70920;SDS011;58572;48.110;19.838;2022-12-05T04:05:19;52.22;;;19.08;;
70920;SDS011;58572;48.110;19.838;2022-12-05T04:07:52;37.58;;;15.35;;
70920;SDS011;58572;48.110;19.838;2022-12-05T04:10:25;33.42;;;14.48;;
70920;SDS011;58572;48.110;19.838;2022-12-05T04:12:58;30.48;;;13.07;;
70920;SDS011;58572;48.110;19.838;2022-12-05T04:15:41;27.00;;;12.80;;
70920;SDS011;58572;48.110;19.838;2022-12-05T04:18:33;42.10;;;21.50;;
70920;SDS011;58572;48.110;19.838;2022-12-05T04:21:04;31.08;;;13.43;;
70920;SDS011;58572;48.110;19.838;2022-12-05T04:23:49;25.08;;;12.25;;
70920;SDS011;58572;48.110;19.838;2022-12-05T04:26:39;27.38;;;12.15;;
70920;SDS011;58572;48.110;19.838;2022-12-05T04:29:13;23.63;;;11.98;;
70920;SDS011;58572;48.110;19.838;2022-12-05T04:31:50;21.27;;;10.95;;
70920;SDS011;58572;48.110;19.838;2022-12-05T04:34:22;25.60;;;11.30;;
70920;SDS011;58572;48.110;19.838;2022-12-05T04:36:54;26.42;;;12.05;;
70920;SDS011;58572;48.110;19.838;2022-12-05T04:39:26;24.70;;;11.93;;
70920;SDS011;58572;48.110;19.838;2022-12-05T04:41:59;28.08;;;13.93;;
70920;SDS011;58572;48.110;19.838;2022-12-05T04:44:31;42.83;;;20.55;;
70920;SDS011;58572;48.110;19.838;2022-12-05T04:47:03;28.70;;;12.95;;
70920;SDS011;58572;48.110;19.838;2022-12-05T04:49:35;23.83;;;11.50;;
70920;SDS011;58572;48.110;19.838;2022-12-05T04:52:05;23.20;;;11.25;;
70920;SDS011;58572;48.110;19.838;2022-12-05T04:54:36;23.13;;;11.57;;
70920;SDS011;58572;48.110;19.838;2022-12-05T04:57:09;25.65;;;12.73;;
70920;SDS011;58572;48.110;19.838;2022-12-05T04:59:41;24.80;;;12.93;;
70920;SDS011;58572;48.110;19.838;2022-12-05T05:02:09;23.65;;;12.18;;
70920;SDS011;58572;48.110;19.838;2022-12-05T05:04:42;26.55;;;13.10;;
70920;SDS011;58572;48.110;19.838;2022-12-05T05:07:13;27.60;;;12.38;;
70920;SDS011;58572;48.110;19.838;2022-12-05T05:09:41;20.30;;;10.90;;
70920;SDS011;58572;48.110;19.838;2022-12-05T05:12:10;23.00;;;11.13;;
70920;SDS011;58572;48.110;19.838;2022-12-05T05:14:37;22.02;;;11.48;;
70920;SDS011;58572;48.110;19.838;2022-12-05T05:17:04;24.60;;;11.95;;
70920;SDS011;58572;48.110;19.838;2022-12-05T05:19:31;23.33;;;10.98;;
70920;SDS011;58572;48.110;19.838;2022-12-05T05:22:01;21.73;;;10.45;;
70920;SDS011;58572;48.110;19.838;2022-12-05T05:24:28;23.98;;;11.68;;
70920;SDS011;58572;48.110;19.838;2022-12-05T05:26:55;22.35;;;10.43;;
70920;SDS011;58572;48.110;19.838;2022-12-05T05:29:22;21.33;;;10.70;;
70920;SDS011;58572;48.110;19.838;2022-12-05T05:31:49;34.72;;;16.25;;
70920;SDS011;58572;48.110;19.838;2022-12-05T05:34:16;25.15;;;11.77;;
70920;SDS011;58572;48.110;19.838;2022-12-05T05:36:43;37.42;;;16.02;;
70920;SDS011;58572;48.110;19.838;2022-12-05T05:39:13;22.63;;;12.00;;
70920;SDS011;58572;48.110;19.838;2022-12-05T05:41:41;26.85;;;11.60;;
70920;SDS011;58572;48.110;19.838;2022-12-05T05:44:08;43.08;;;16.90;;
70920;SDS011;58572;48.110;19.838;2022-12-05T05:46:36;198.07;;;62.05;;
70920;SDS011;58572;48.110;19.838;2022-12-05T05:49:03;140.43;;;51.70;;
70920;SDS011;58572;48.110;19.838;2022-12-05T05:51:31;45.58;;;18.73;;
70920;SDS011;58572;48.110;19.838;2022-12-05T05:53:58;49.60;;;20.75;;
70920;SDS011;58572;48.110;19.838;2022-12-05T05:56:28;28.83;;;12.63;;
70920;SDS011;58572;48.110;19.838;2022-12-05T05:58:55;23.52;;;11.13;;
70920;SDS011;58572;48.110;19.838;2022-12-05T06:01:24;19.73;;;10.15;;
70920;SDS011;58572;48.110;19.838;2022-12-05T06:03:51;21.38;;;10.63;;
70920;SDS011;58572;48.110;19.838;2022-12-05T06:06:19;30.80;;;14.65;;
70920;SDS011;58572;48.110;19.838;2022-12-05T06:08:47;14.70;;;8.10;;
70920;SDS011;58572;48.110;19.838;2022-12-05T06:11:15;20.50;;;9.60;;
70920;SDS011;58572;48.110;19.838;2022-12-05T06:13:46;18.98;;;9.48;;
70920;SDS011;58572;48.110;19.838;2022-12-05T06:16:14;15.55;;;7.15;;
70920;SDS011;58572;48.110;19.838;2022-12-05T06:18:43;12.70;;;6.82;;
70920;SDS011;58572;48.110;19.838;2022-12-05T06:21:10;12.73;;;5.93;;
70920;SDS011;58572;48.110;19.838;2022-12-05T06:23:38;15.27;;;7.28;;
70920;SDS011;58572;48.110;19.838;2022-12-05T06:28:35;14.90;;;6.70;;
70920;SDS011;58572;48.110;19.838;2022-12-05T06:31:07;11.25;;;5.80;;
70920;SDS011;58572;48.110;19.838;2022-12-05T06:33:34;13.75;;;5.78;;
70920;SDS011;58572;48.110;19.838;2022-12-05T06:36:03;10.85;;;6.13;;
70920;SDS011;58572;48.110;19.838;2022-12-05T06:38:31;12.95;;;6.10;;
70920;SDS011;58572;48.110;19.838;2022-12-05T06:40:59;10.90;;;5.38;;
70920;SDS011;58572;48.110;19.838;2022-12-05T06:43:29;13.40;;;6.35;;
70920;SDS011;58572;48.110;19.838;2022-12-05T06:45:56;11.48;;;5.57;;
70920;SDS011;58572;48.110;19.838;2022-12-05T06:48:25;11.63;;;5.70;;
70920;SDS011;58572;48.110;19.838;2022-12-05T06:50:52;9.00;;;4.85;;
70920;SDS011;58572;48.110;19.838;2022-12-05T06:53:19;11.15;;;5.05;;
70920;SDS011;58572;48.110;19.838;2022-12-05T06:55:53;11.90;;;6.28;;
70920;SDS011;58572;48.110;19.838;2022-12-05T06:58:22;7.60;;;4.57;;
70920;SDS011;58572;48.110;19.838;2022-12-05T07:00:49;7.53;;;4.20;;
70920;SDS011;58572;48.110;19.838;2022-12-05T07:03:35;16.80;;;9.18;;
70920;SDS011;58572;48.110;19.838;2022-12-05T07:06:03;10.18;;;4.75;;
70920;SDS011;58572;48.110;19.838;2022-12-05T07:08:31;7.93;;;3.92;;
70920;SDS011;58572;48.110;19.838;2022-12-05T07:10:59;7.85;;;4.20;;
70920;SDS011;58572;48.110;19.838;2022-12-05T07:13:26;7.78;;;4.40;;
70920;SDS011;58572;48.110;19.838;2022-12-05T07:15:54;8.82;;;4.72;;
70920;SDS011;58572;48.110;19.838;2022-12-05T07:18:23;7.85;;;4.32;;
70920;SDS011;58572;48.110;19.838;2022-12-05T07:20:56;7.80;;;4.30;;
70920;SDS011;58572;48.110;19.838;2022-12-05T07:23:24;9.10;;;4.63;;
70920;SDS011;58572;48.110;19.838;2022-12-05T07:25:51;8.50;;;4.47;;
70920;SDS011;58572;48.110;19.838;2022-12-05T07:28:18;10.05;;;5.68;;
70920;SDS011;58572;48.110;19.838;2022-12-05T07:30:46;8.63;;;4.95;;
70920;SDS011;58572;48.110;19.838;2022-12-05T07:33:13;8.10;;;4.82;;
70920;SDS011;58572;48.110;19.838;2022-12-05T07:35:40;8.20;;;4.47;;
70920;SDS011;58572;48.110;19.838;2022-12-05T07:38:09;74.95;;;31.90;;
70920;SDS011;58572;48.110;19.838;2022-12-05T07:40:36;14.15;;;7.45;;
70920;SDS011;58572;48.110;19.838;2022-12-05T07:43:04;15.65;;;7.82;;
70920;SDS011;58572;48.110;19.838;2022-12-05T07:45:32;14.27;;;7.15;;
70920;SDS011;58572;48.110;19.838;2022-12-05T07:48:00;13.65;;;6.63;;
70920;SDS011;58572;48.110;19.838;2022-12-05T07:50:27;10.88;;;5.85;;
70920;SDS011;58572;48.110;19.838;2022-12-05T07:52:54;10.32;;;4.95;;
70920;SDS011;58572;48.110;19.838;2022-12-05T07:55:23;11.43;;;5.07;;
70920;SDS011;58572;48.110;19.838;2022-12-05T07:57:50;12.43;;;5.78;;
70920;SDS011;58572;48.110;19.838;2022-12-05T08:00:17;9.80;;;5.40;;
70920;SDS011;58572;48.110;19.838;2022-12-05T08:02:46;11.48;;;5.40;;
70920;SDS011;58572;48.110;19.838;2022-12-05T08:05:13;11.93;;;5.82;;
70920;SDS011;58572;48.110;19.838;2022-12-05T08:07:40;9.95;;;5.38;;
70920;SDS011;58572;48.110;19.838;2022-12-05T08:10:07;9.93;;;5.45;;
70920;SDS011;58572;48.110;19.838;2022-12-05T08:12:36;9.60;;;5.35;;
70920;SDS011;58572;48.110;19.838;2022-12-05T08:15:04;11.55;;;5.75;;
70920;SDS011;58572;48.110;19.838;2022-12-05T08:17:32;11.80;;;6.15;;
70920;SDS011;58572;48.110;19.838;2022-12-05T08:19:59;12.15;;;6.20;;
70920;SDS011;58572;48.110;19.838;2022-12-05T08:22:26;23.92;;;6.90;;
70920;SDS011;58572;48.110;19.838;2022-12-05T08:24:53;13.93;;;5.93;;
70920;SDS011;58572;48.110;19.838;2022-12-05T08:27:20;11.52;;;6.25;;
70920;SDS011;58572;48.110;19.838;2022-12-05T08:29:49;10.57;;;5.85;;
70920;SDS011;58572;48.110;19.838;2022-12-05T08:32:16;10.60;;;5.40;;
70920;SDS011;58572;48.110;19.838;2022-12-05T08:34:43;12.32;;;6.22;;
70920;SDS011;58572;48.110;19.838;2022-12-05T08:37:10;12.48;;;6.15;;
70920;SDS011;58572;48.110;19.838;2022-12-05T08:39:37;12.40;;;6.35;;
70920;SDS011;58572;48.110;19.838;2022-12-05T08:42:05;11.70;;;6.18;;
70920;SDS011;58572;48.110;19.838;2022-12-05T08:44:32;13.48;;;6.85;;
70920;SDS011;58572;48.110;19.838;2022-12-05T08:47:00;11.52;;;6.55;;
70920;SDS011;58572;48.110;19.838;2022-12-05T08:49:27;13.18;;;6.90;;
70920;SDS011;58572;48.110;19.838;2022-12-05T08:51:54;12.70;;;7.35;;
70920;SDS011;58572;48.110;19.838;2022-12-05T08:54:21;16.05;;;8.50;;
70920;SDS011;58572;48.110;19.838;2022-12-05T08:56:49;15.63;;;8.32;;
70920;SDS011;58572;48.110;19.838;2022-12-05T08:59:17;20.75;;;10.50;;
70920;SDS011;58572;48.110;19.838;2022-12-05T09:01:44;27.90;;;12.38;;
70920;SDS011;58572;48.110;19.838;2022-12-05T09:04:12;15.80;;;9.07;;
70920;SDS011;58572;48.110;19.838;2022-12-05T09:06:40;16.13;;;8.23;;
70920;SDS011;58572;48.110;19.838;2022-12-05T09:09:07;15.27;;;8.05;;
70920;SDS011;58572;48.110;19.838;2022-12-05T09:11:36;16.42;;;8.57;;
70920;SDS011;58572;48.110;19.838;2022-12-05T09:14:08;14.63;;;7.55;;
70920;SDS011;58572;48.110;19.838;2022-12-05T09:16:35;13.25;;;7.20;;
70920;SDS011;58572;48.110;19.838;2022-12-05T09:19:03;15.75;;;7.85;;
70920;SDS011;58572;48.110;19.838;2022-12-05T09:21:32;12.48;;;6.88;;
70920;SDS011;58572;48.110;19.838;2022-12-05T09:23:59;12.40;;;7.00;;
70920;SDS011;58572;48.110;19.838;2022-12-05T09:26:27;14.07;;;7.35;;
70920;SDS011;58572;48.110;19.838;2022-12-05T09:28:55;14.85;;;6.85;;
70920;SDS011;58572;48.110;19.838;2022-12-05T09:33:51;11.43;;;6.32;;
70920;SDS011;58572;48.110;19.838;2022-12-05T09:36:19;13.48;;;7.20;;
70920;SDS011;58572;48.110;19.838;2022-12-05T09:38:48;15.23;;;7.95;;
70920;SDS011;58572;48.110;19.838;2022-12-05T09:41:19;13.50;;;7.10;;
70920;SDS011;58572;48.110;19.838;2022-12-05T09:44:17;15.35;;;8.07;;
70920;SDS011;58572;48.110;19.838;2022-12-05T09:46:52;14.18;;;8.45;;
70920;SDS011;58572;48.110;19.838;2022-12-05T09:49:21;18.00;;;7.85;;
70920;SDS011;58572;48.110;19.838;2022-12-05T09:51:50;15.13;;;8.00;;
70920;SDS011;58572;48.110;19.838;2022-12-05T09:54:20;15.45;;;7.90;;
70920;SDS011;58572;48.110;19.838;2022-12-05T09:56:49;18.13;;;9.77;;
70920;SDS011;58572;48.110;19.838;2022-12-05T09:59:19;18.42;;;8.90;;
70920;SDS011;58572;48.110;19.838;2022-12-05T10:01:48;15.57;;;7.15;;
70920;SDS011;58572;48.110;19.838;2022-12-05T10:04:32;17.52;;;8.32;;
70920;SDS011;58572;48.110;19.838;2022-12-05T10:07:16;18.63;;;8.90;;
70920;SDS011;58572;48.110;19.838;2022-12-05T10:09:55;16.80;;;8.63;;
70920;SDS011;58572;48.110;19.838;2022-12-05T10:12:40;18.45;;;8.50;;
70920;SDS011;58572;48.110;19.838;2022-12-05T10:15:19;19.77;;;9.02;;
70920;SDS011;58572;48.110;19.838;2022-12-05T10:17:55;36.97;;;16.55;;
70920;SDS011;58572;48.110;19.838;2022-12-05T10:20:26;48.22;;;21.77;;
70920;SDS011;58572;48.110;19.838;2022-12-05T10:22:57;25.23;;;12.65;;
70920;SDS011;58572;48.110;19.838;2022-12-05T10:25:29;23.02;;;11.10;;
70920;SDS011;58572;48.110;19.838;2022-12-05T10:27:59;19.23;;;9.57;;
70920;SDS011;58572;48.110;19.838;2022-12-05T10:30:30;21.00;;;9.30;;
70920;SDS011;58572;48.110;19.838;2022-12-05T10:33:01;23.00;;;9.90;;
70920;SDS011;58572;48.110;19.838;2022-12-05T10:35:32;26.08;;;10.65;;
70920;SDS011;58572;48.110;19.838;2022-12-05T10:38:02;17.52;;;9.30;;
70920;SDS011;58572;48.110;19.838;2022-12-05T10:40:33;17.25;;;8.63;;
70920;SDS011;58572;48.110;19.838;2022-12-05T10:43:02;18.48;;;9.10;;
70920;SDS011;58572;48.110;19.838;2022-12-05T10:45:30;16.67;;;8.55;;
70920;SDS011;58572;48.110;19.838;2022-12-05T10:47:58;17.83;;;8.35;;
70920;SDS011;58572;48.110;19.838;2022-12-05T10:50:26;16.70;;;8.40;;
70920;SDS011;58572;48.110;19.838;2022-12-05T10:52:56;19.52;;;9.18;;
70920;SDS011;58572;48.110;19.838;2022-12-05T10:55:27;19.50;;;9.23;;
70920;SDS011;58572;48.110;19.838;2022-12-05T10:58:11;38.50;;;15.75;;
70920;SDS011;58572;48.110;19.838;2022-12-05T11:00:39;37.75;;;15.68;;
70920;SDS011;58572;48.110;19.838;2022-12-05T11:03:24;25.42;;;12.02;;
70920;SDS011;58572;48.110;19.838;2022-12-05T11:05:54;28.15;;;12.60;;
70920;SDS011;58572;48.110;19.838;2022-12-05T11:08:24;32.33;;;17.42;;
70920;SDS011;58572;48.110;19.838;2022-12-05T11:11:00;21.60;;;10.85;;
70920;SDS011;58572;48.110;19.838;2022-12-05T11:13:30;18.33;;;8.50;;
70920;SDS011;58572;48.110;19.838;2022-12-05T11:15:58;51.95;;;24.75;;
70920;SDS011;58572;48.110;19.838;2022-12-05T11:18:27;122.70;;;48.97;;
70920;SDS011;58572;48.110;19.838;2022-12-05T11:20:56;42.60;;;19.95;;
70920;SDS011;58572;48.110;19.838;2022-12-05T11:23:34;25.85;;;13.00;;
70920;SDS011;58572;48.110;19.838;2022-12-05T11:26:01;18.95;;;9.68;;
70920;SDS011;58572;48.110;19.838;2022-12-05T11:28:32;31.65;;;18.13;;
70920;SDS011;58572;48.110;19.838;2022-12-05T11:31:03;34.83;;;19.17;;
70920;SDS011;58572;48.110;19.838;2022-12-05T11:33:33;23.48;;;11.30;;
70920;SDS011;58572;48.110;19.838;2022-12-05T11:36:10;21.58;;;11.18;;
70920;SDS011;58572;48.110;19.838;2022-12-05T11:38:39;21.58;;;11.07;;
70920;SDS011;58572;48.110;19.838;2022-12-05T11:41:16;21.33;;;9.75;;
70920;SDS011;58572;48.110;19.838;2022-12-05T11:44:04;18.13;;;9.10;;
70920;SDS011;58572;48.110;19.838;2022-12-05T11:46:45;17.13;;;9.25;;
70920;SDS011;58572;48.110;19.838;2022-12-05T11:49:28;19.67;;;9.95;;
70920;SDS011;58572;48.110;19.838;2022-12-05T11:52:06;17.17;;;9.25;;
70920;SDS011;58572;48.110;19.838;2022-12-05T11:54:43;16.75;;;8.73;;
70920;SDS011;58572;48.110;19.838;2022-12-05T11:57:21;19.15;;;9.10;;
70920;SDS011;58572;48.110;19.838;2022-12-05T12:00:03;17.00;;;8.68;;
70920;SDS011;58572;48.110;19.838;2022-12-05T12:02:36;15.70;;;8.57;;
70920;SDS011;58572;48.110;19.838;2022-12-05T12:05:19;16.13;;;8.05;;
70920;SDS011;58572;48.110;19.838;2022-12-05T12:07:59;17.45;;;8.25;;
70920;SDS011;58572;48.110;19.838;2022-12-05T12:10:39;18.02;;;9.73;;
70920;SDS011;58572;48.110;19.838;2022-12-05T12:13:17;30.48;;;14.15;;
70920;SDS011;58572;48.110;19.838;2022-12-05T12:16:11;17.55;;;11.20;;
70920;SDS011;58572;48.110;19.838;2022-12-05T12:18:48;20.67;;;10.10;;
70920;SDS011;58572;48.110;19.838;2022-12-05T12:21:27;17.38;;;9.45;;
70920;SDS011;58572;48.110;19.838;2022-12-05T12:24:10;17.65;;;9.60;;
70920;SDS011;58572;48.110;19.838;2022-12-05T12:26:51;17.45;;;9.38;;
70920;SDS011;58572;48.110;19.838;2022-12-05T12:29:33;18.27;;;10.68;;
70920;SDS011;58572;48.110;19.838;2022-12-05T12:32:16;23.65;;;12.00;;
70920;SDS011;58572;48.110;19.838;2022-12-05T12:35:06;21.60;;;10.35;;
70920;SDS011;58572;48.110;19.838;2022-12-05T12:37:51;21.95;;;10.20;;
70920;SDS011;58572;48.110;19.838;2022-12-05T12:40:34;23.85;;;11.85;;
70920;SDS011;58572;48.110;19.838;2022-12-05T12:43:10;24.60;;;12.80;;
70920;SDS011;58572;48.110;19.838;2022-12-05T12:48:42;24.20;;;11.77;;
70920;SDS011;58572;48.110;19.838;2022-12-05T12:51:24;23.90;;;11.88;;
70920;SDS011;58572;48.110;19.838;2022-12-05T12:53:56;22.27;;;11.57;;
70920;SDS011;58572;48.110;19.838;2022-12-05T12:56:39;29.60;;;15.40;;
70920;SDS011;58572;48.110;19.838;2022-12-05T12:59:19;27.38;;;13.40;;
70920;SDS011;58572;48.110;19.838;2022-12-05T13:02:07;26.85;;;11.65;;
70920;SDS011;58572;48.110;19.838;2022-12-05T13:04:46;30.10;;;13.98;;
70920;SDS011;58572;48.110;19.838;2022-12-05T13:07:17;23.83;;;12.25;;
70920;SDS011;58572;48.110;19.838;2022-12-05T13:09:50;25.10;;;12.18;;
70920;SDS011;58572;48.110;19.838;2022-12-05T13:12:23;31.13;;;14.00;;
70920;SDS011;58572;48.110;19.838;2022-12-05T13:14:54;23.90;;;12.07;;
70920;SDS011;58572;48.110;19.838;2022-12-05T13:17:25;28.98;;;12.90;;
70920;SDS011;58572;48.110;19.838;2022-12-05T13:19:57;25.40;;;11.57;;
70920;SDS011;58572;48.110;19.838;2022-12-05T13:22:26;25.73;;;12.38;;
70920;SDS011;58572;48.110;19.838;2022-12-05T13:24:55;25.95;;;12.88;;
70920;SDS011;58572;48.110;19.838;2022-12-05T13:27:22;27.23;;;11.95;;
70920;SDS011;58572;48.110;19.838;2022-12-05T13:29:52;30.02;;;13.80;;
70920;SDS011;58572;48.110;19.838;2022-12-05T13:32:23;25.50;;;12.75;;
70920;SDS011;58572;48.110;19.838;2022-12-05T13:34:53;22.73;;;12.25;;
70920;SDS011;58572;48.110;19.838;2022-12-05T13:37:23;25.38;;;11.40;;
70920;SDS011;58572;48.110;19.838;2022-12-05T13:43:15;29.52;;;14.70;;
70920;SDS011;58572;48.110;19.838;2022-12-05T13:45:56;23.15;;;10.90;;
70920;SDS011;58572;48.110;19.838;2022-12-05T13:48:28;30.27;;;14.23;;
70920;SDS011;58572;48.110;19.838;2022-12-05T13:50:59;25.75;;;13.00;;
70920;SDS011;58572;48.110;19.838;2022-12-05T13:53:34;24.25;;;11.25;;
70920;SDS011;58572;48.110;19.838;2022-12-05T13:56:05;27.73;;;13.75;;
70920;SDS011;58572;48.110;19.838;2022-12-05T13:58:49;26.80;;;13.40;;
70920;SDS011;58572;48.110;19.838;2022-12-05T14:10:07;26.27;;;12.73;;
70920;SDS011;58572;48.110;19.838;2022-12-05T14:15:26;25.88;;;12.32;;
70920;SDS011;58572;48.110;19.838;2022-12-05T14:17:56;25.67;;;12.07;;
70920;SDS011;58572;48.110;19.838;2022-12-05T14:20:30;30.30;;;14.02;;
70920;SDS011;58572;48.110;19.838;2022-12-05T14:23:14;28.95;;;12.85;;
70920;SDS011;58572;48.110;19.838;2022-12-05T14:25:58;27.50;;;12.65;;
70920;SDS011;58572;48.110;19.838;2022-12-05T14:28:39;26.15;;;12.15;;
70920;SDS011;58572;48.110;19.838;2022-12-05T14:31:22;25.80;;;12.00;;
70920;SDS011;58572;48.110;19.838;2022-12-05T14:34:03;26.40;;;13.38;;
70920;SDS011;58572;48.110;19.838;2022-12-05T14:36:36;28.20;;;12.30;;
70920;SDS011;58572;48.110;19.838;2022-12-05T14:39:18;29.63;;;14.00;;
70920;SDS011;58572;48.110;19.838;2022-12-05T14:41:55;27.77;;;13.52;;
70920;SDS011;58572;48.110;19.838;2022-12-05T14:44:23;28.65;;;13.35;;
70920;SDS011;58572;48.110;19.838;2022-12-05T14:46:56;33.13;;;15.38;;
70920;SDS011;58572;48.110;19.838;2022-12-05T14:49:33;30.00;;;14.02;;
70920;SDS011;58572;48.110;19.838;2022-12-05T14:52:17;28.25;;;13.85;;
70920;SDS011;58572;48.110;19.838;2022-12-05T14:54:46;29.27;;;13.57;;
70920;SDS011;58572;48.110;19.838;2022-12-05T14:57:15;29.30;;;13.15;;
70920;SDS011;58572;48.110;19.838;2022-12-05T14:59:47;26.77;;;13.00;;
70920;SDS011;58572;48.110;19.838;2022-12-05T15:02:19;25.15;;;12.10;;
70920;SDS011;58572;48.110;19.838;2022-12-05T15:04:51;27.83;;;13.80;;
70920;SDS011;58572;48.110;19.838;2022-12-05T15:07:25;30.42;;;12.57;;
70920;SDS011;58572;48.110;19.838;2022-12-05T15:09:57;23.65;;;11.93;;